Ana Sayfa
METAR-TAF:

METAR-TAF

Havaalanları :

Chesapeake Regional Airport

Norfolk, Virginia, Amerika Birleşik Devletleri

Enlem: 36-39-56N, Boylam: 076-19-14W, yükseklik: 6 m

Güncel hava durumu gözlemi

Rapor saat 05:55 UTC de 6 dakika önce yapıldı.
Rüzgar kuzey/kuzeybatıdan 6 kt ve 14 kt'a kadar ani rüzgarlar
Sıcaklık -3°C
Nem 86%
Basınç 1027 hPa
Görüş mesafesi: 2.0 km
1000 ft yükseklikte çok bulutlu
hafif kar

METAR: KCPK 220555Z AUTO 34006G14KT 1 1/4SM -SN OVC010 M03/M05 A3032 RMK AO2 T10351047 11025 21035

Saat: 01:01 (06:01 UTC)


TAF: eksik

4.000'den fazla havaalanı için hava durumu gözlemleri ve tahminleri (METAR ve TAF raporları).

Kullanılabilir istasyonlar harita üzerinde sarı ve kırmızı noktalarla gösterilir.

İstasyonun adını görmek için fareyi noktanın üzerinde gezdirin.

Sonrasında hava gözlem ve tahminlerini görmek için tıklayın.

Haritayı değiştirmek için: yaklaştırmak için siyah artı işaretli yeşil düğmeye ve uzaklaştırmak için de eksi işaretli düğmeye hızla tıklayın; bitişik haritalar için yeşil okları kullanın.


METAR-TAF: